EWG9MY EDDL-HEGN
Flight info
| Callsign | EWG9MY |
|---|---|
| Flight time | N/A |
| Altitude | 33000 |
| Route | DODEN Y853 BOMBI DCT DETEV DCT DINKU M867 XERUM DCT BAVAX DCT RADIZ DCT GIMIX DCT ALIVO DCT KULEN DCT SIRMI DCT NERRA DCT VAKSU DCT RODON DCT DIMIS UL604 SALUN N705 BOPIX N710 TAKRI M720 FYM M872 BOPOB |
| Aircraft | A320/M-SDE3FGHIRWY/LB1 |
Departure
| Time | 2026-02-20 11:43 |
|---|---|
| Airport | Düsseldorf Airport (EDDL) |
Arrival
| Time | N/A |
|---|---|
| Airport | Hurghada International Airport (HEGN) |
| Time | Latitude | Longitude | Altitude | Speed | Heading |
|---|---|---|---|---|---|
| 2026-02-20 11:16 | 51.28150 | 6.76544 | 130 ft | 0 kts | 96° |
| 2026-02-20 11:25 | 51.28151 | 6.76525 | 126 ft | 2 kts | 94° |
| 2026-02-20 11:26 | 51.28152 | 6.76499 | 129 ft | 2 kts | 91° |
| 2026-02-20 11:26 | 51.28152 | 6.76472 | 128 ft | 2 kts | 84° |
| 2026-02-20 11:26 | 51.28149 | 6.76447 | 127 ft | 2 kts | 66° |
| 2026-02-20 11:26 | 51.28139 | 6.76426 | 128 ft | 2 kts | 22° |
| 2026-02-20 11:27 | 51.28128 | 6.76421 | 126 ft | 1 kts | 5° |
| 2026-02-20 11:27 | 51.28126 | 6.76420 | 126 ft | 0 kts | 5° |
| 2026-02-20 11:32 | 51.28134 | 6.76422 | 128 ft | 1 kts | 5° |
| 2026-02-20 11:32 | 51.28153 | 6.76425 | 128 ft | 3 kts | 6° |
| 2026-02-20 11:33 | 51.28187 | 6.76431 | 131 ft | 6 kts | 6° |
| 2026-02-20 11:33 | 51.28212 | 6.76436 | 131 ft | 2 kts | 6° |
| 2026-02-20 11:33 | 51.28218 | 6.76437 | 130 ft | 0 kts | 6° |
| 2026-02-20 11:33 | 51.28227 | 6.76438 | 130 ft | 2 kts | 6° |
| 2026-02-20 11:34 | 51.28231 | 6.76439 | 130 ft | 0 kts | 7° |
| 2026-02-20 11:34 | 51.28236 | 6.76442 | 130 ft | 3 kts | 16° |
| 2026-02-20 11:34 | 51.28252 | 6.76467 | 127 ft | 3 kts | 52° |
| 2026-02-20 11:34 | 51.28291 | 6.76501 | 128 ft | 7 kts | 345° |
| 2026-02-20 11:35 | 51.28333 | 6.76478 | 125 ft | 9 kts | 3° |
| 2026-02-20 11:35 | 51.28373 | 6.76530 | 126 ft | 5 kts | 52° |
| 2026-02-20 11:35 | 51.28394 | 6.76575 | 125 ft | 7 kts | 53° |
| 2026-02-20 11:35 | 51.28437 | 6.76666 | 125 ft | 13 kts | 53° |
| 2026-02-20 11:36 | 51.28502 | 6.76804 | 123 ft | 18 kts | 53° |
| 2026-02-20 11:36 | 51.28594 | 6.76995 | 130 ft | 25 kts | 52° |
| 2026-02-20 11:36 | 51.28711 | 6.77240 | 130 ft | 31 kts | 52° |
| 2026-02-20 11:36 | 51.28851 | 6.77536 | 127 ft | 35 kts | 53° |
| 2026-02-20 11:37 | 51.29006 | 6.77861 | 129 ft | 38 kts | 53° |
| 2026-02-20 11:37 | 51.29170 | 6.78205 | 137 ft | 39 kts | 52° |
| 2026-02-20 11:37 | 51.29310 | 6.78500 | 149 ft | 6 kts | 51° |
| 2026-02-20 11:37 | 51.29321 | 6.78522 | 150 ft | 0 kts | 51° |
| 2026-02-20 11:38 | 51.29329 | 6.78537 | 150 ft | 5 kts | 50° |
| 2026-02-20 11:38 | 51.29338 | 6.78552 | 151 ft | 0 kts | 44° |
| 2026-02-20 11:38 | 51.29347 | 6.78563 | 152 ft | 0 kts | 36° |
| 2026-02-20 11:38 | 51.29360 | 6.78573 | 152 ft | 2 kts | 19° |
| 2026-02-20 11:39 | 51.29380 | 6.78573 | 152 ft | 6 kts | 358° |
| 2026-02-20 11:39 | 51.29453 | 6.78566 | 152 ft | 13 kts | 354° |
| 2026-02-20 11:39 | 51.29516 | 6.78557 | 154 ft | 5 kts | 355° |
| 2026-02-20 11:39 | 51.29524 | 6.78556 | 154 ft | 0 kts | 355° |
| 2026-02-20 11:40 | 51.29531 | 6.78553 | 154 ft | 2 kts | 344° |
| 2026-02-20 11:40 | 51.29539 | 6.78523 | 154 ft | 4 kts | 266° |
| 2026-02-20 11:40 | 51.29528 | 6.78491 | 153 ft | 2 kts | 235° |
| 2026-02-20 11:40 | 51.29523 | 6.78480 | 152 ft | 0 kts | 235° |
| 2026-02-20 11:41 | 51.29518 | 6.78469 | 152 ft | 0 kts | 234° |
| 2026-02-20 11:42 | 51.29516 | 6.78464 | 152 ft | 7 kts | 234° |
| 2026-02-20 11:42 | 51.29373 | 6.78167 | 144 ft | 68 kts | 233° |
| 2026-02-20 11:43 | 51.28944 | 6.77276 | 127 ft | 132 kts | 234° |
| 2026-02-20 11:43 | 51.28278 | 6.75909 | 222 ft | 173 kts | 228° |
| 2026-02-20 11:43 | 51.27538 | 6.74356 | 1023 ft | 178 kts | 230° |
| 2026-02-20 11:43 | 51.26809 | 6.72753 | 1992 ft | 176 kts | 232° |
| 2026-02-20 11:44 | 51.26075 | 6.71141 | 2512 ft | 184 kts | 232° |
| 2026-02-20 11:44 | 51.25563 | 6.70023 | 2762 ft | 191 kts | 231° |
| 2026-02-20 11:44 | 51.24732 | 6.68269 | 3062 ft | 207 kts | 231° |
| 2026-02-20 11:44 | 51.23822 | 6.66323 | 3284 ft | 229 kts | 232° |
| 2026-02-20 11:45 | 51.22719 | 6.64439 | 3750 ft | 240 kts | 212° |
| 2026-02-20 11:45 | 51.21135 | 6.63581 | 4443 ft | 245 kts | 186° |
| 2026-02-20 11:45 | 51.19409 | 6.63739 | 5121 ft | 253 kts | 178° |
| 2026-02-20 11:45 | 51.17639 | 6.64023 | 5795 ft | 257 kts | 177° |
| 2026-02-20 11:46 | 51.15856 | 6.64403 | 6514 ft | 261 kts | 166° |
| 2026-02-20 11:46 | 51.14269 | 6.65766 | 7136 ft | 269 kts | 139° |
| 2026-02-20 11:46 | 51.13238 | 6.68292 | 7709 ft | 280 kts | 108° |
| 2026-02-20 11:46 | 51.13071 | 6.71409 | 8257 ft | 288 kts | 88° |
| 2026-02-20 11:47 | 51.13202 | 6.74635 | 8826 ft | 294 kts | 87° |
| 2026-02-20 11:47 | 51.13343 | 6.77913 | 9433 ft | 298 kts | 87° |
| 2026-02-20 11:47 | 51.13481 | 6.81218 | 10047 ft | 302 kts | 87° |
| 2026-02-20 11:47 | 51.13616 | 6.84597 | 10500 ft | 310 kts | 87° |
| 2026-02-20 11:48 | 51.13751 | 6.88112 | 10728 ft | 326 kts | 87° |
| 2026-02-20 11:48 | 51.13888 | 6.91805 | 10953 ft | 343 kts | 87° |
| 2026-02-20 11:48 | 51.14027 | 6.95651 | 11149 ft | 358 kts | 87° |
| 2026-02-20 11:48 | 51.14176 | 6.99752 | 11409 ft | 372 kts | 87° |
| 2026-02-20 11:49 | 51.14328 | 7.03887 | 11900 ft | 376 kts | 86° |
| 2026-02-20 11:49 | 51.14480 | 7.08063 | 12473 ft | 379 kts | 86° |
| 2026-02-20 11:49 | 51.14628 | 7.12266 | 13051 ft | 381 kts | 86° |
| 2026-02-20 11:49 | 51.14772 | 7.16487 | 13625 ft | 384 kts | 87° |
| 2026-02-20 11:50 | 51.14915 | 7.20694 | 14134 ft | 387 kts | 87° |
| 2026-02-20 11:50 | 51.15062 | 7.25043 | 14626 ft | 390 kts | 87° |
| 2026-02-20 11:50 | 51.15204 | 7.29317 | 15103 ft | 392 kts | 87° |
| 2026-02-20 11:50 | 51.15352 | 7.33680 | 15585 ft | 395 kts | 87° |
| 2026-02-20 11:51 | 51.15330 | 7.38070 | 16044 ft | 397 kts | 97° |
| 2026-02-20 11:51 | 51.14757 | 7.42363 | 16525 ft | 399 kts | 109° |
| 2026-02-20 11:51 | 51.13641 | 7.46424 | 16978 ft | 401 kts | 121° |
| 2026-02-20 11:51 | 51.12050 | 7.50067 | 17428 ft | 402 kts | 132° |
| 2026-02-20 11:52 | 51.10078 | 7.53238 | 17864 ft | 405 kts | 137° |
| 2026-02-20 11:52 | 51.08035 | 7.56346 | 18297 ft | 408 kts | 137° |
| 2026-02-20 11:52 | 51.05976 | 7.59479 | 18703 ft | 411 kts | 137° |
| 2026-02-20 11:52 | 51.03893 | 7.62649 | 19099 ft | 414 kts | 137° |
| 2026-02-20 11:53 | 51.01810 | 7.65819 | 19480 ft | 417 kts | 137° |
| 2026-02-20 11:53 | 50.99708 | 7.69016 | 19859 ft | 420 kts | 137° |
| 2026-02-20 11:53 | 50.97584 | 7.72226 | 20245 ft | 422 kts | 139° |
| 2026-02-20 11:53 | 50.95281 | 7.75024 | 20616 ft | 422 kts | 149° |
| 2026-02-20 11:54 | 50.92776 | 7.77484 | 20954 ft | 425 kts | 149° |
| 2026-02-20 11:54 | 50.90254 | 7.79958 | 21295 ft | 427 kts | 149° |
| 2026-02-20 11:54 | 50.87719 | 7.82454 | 21647 ft | 430 kts | 149° |
| 2026-02-20 11:54 | 50.85179 | 7.84957 | 21991 ft | 432 kts | 149° |
| 2026-02-20 11:55 | 50.82616 | 7.87477 | 22303 ft | 434 kts | 149° |
| 2026-02-20 11:55 | 50.80043 | 7.90001 | 22613 ft | 437 kts | 149° |
| 2026-02-20 11:55 | 50.77457 | 7.92533 | 22920 ft | 439 kts | 149° |
| 2026-02-20 11:55 | 50.74848 | 7.95080 | 23230 ft | 441 kts | 149° |
| 2026-02-20 11:56 | 50.72229 | 7.97638 | 23508 ft | 443 kts | 149° |
| 2026-02-20 11:56 | 50.69631 | 8.00177 | 23755 ft | 446 kts | 149° |
| 2026-02-20 11:56 | 50.66982 | 8.02758 | 23998 ft | 448 kts | 149° |
| 2026-02-20 11:56 | 50.64318 | 8.05347 | 24241 ft | 450 kts | 149° |
| 2026-02-20 11:57 | 50.61648 | 8.07940 | 24447 ft | 452 kts | 149° |
| 2026-02-20 11:57 | 50.59077 | 8.10811 | 24682 ft | 455 kts | 140° |
| 2026-02-20 11:57 | 50.56643 | 8.14019 | 24908 ft | 457 kts | 140° |
| 2026-02-20 11:57 | 50.54203 | 8.17233 | 25135 ft | 459 kts | 140° |
| 2026-02-20 11:58 | 50.51742 | 8.20461 | 25338 ft | 461 kts | 140° |
| 2026-02-20 11:58 | 50.49272 | 8.23689 | 25551 ft | 463 kts | 140° |